Time;durP1;ratioP1;P1;durP2;ratioP2;P2;SDS_P1;SDS_P2;PMS_P1;PMS_P2;Temp;Humidity;BMP_temperature;BMP_pressure;BME280_temperature;BME280_humidity;BME280_pressure;Samples;Min_cycle;Max_cycle;Signal;HPM_P1;HPM_P2
2023/09/18 00:01:57;;;;;;;40.40;4.33;;;;;;;;;;6177554;23;20070;-62
2023/09/18 00:04:24;;;;;;;75.07;5.50;;;;;;;;;;6189922;23;20558;-58
2023/09/18 00:06:52;;;;;;;17.02;2.30;;;;;;;;;;6176927;23;20021;-56
2023/09/18 00:09:20;;;;;;;10.13;1.73;;;;;;;;;;6187013;23;20091;-58
2023/09/18 00:11:48;;;;;;;16.58;2.83;;;;;;;;;;6181523;23;20481;-55
2023/09/18 00:14:17;;;;;;;43.83;4.13;;;;;;;;;;6188989;23;20025;-54
2023/09/18 00:16:45;;;;;;;21.25;2.42;;;;;;;;;;6178885;23;20096;-54
2023/09/18 00:19:26;;;;;;;9.85;2.42;;;;;;;;;;6191739;23;20263;-55
2023/09/18 00:21:56;;;;;;;11.80;2.63;;;;;;;;;;6176416;23;20013;-53
2023/09/18 00:24:25;;;;;;;17.90;3.35;;;;;;;;;;6178935;23;20012;-53
2023/09/18 00:26:53;;;;;;;10.67;2.97;;;;;;;;;;6180935;23;20021;-53
2023/09/18 00:29:23;;;;;;;12.48;2.65;;;;;;;;;;6183260;23;20067;-52
2023/09/18 00:31:51;;;;;;;42.03;3.67;;;;;;;;;;6178211;23;20104;-54
2023/09/18 00:34:18;;;;;;;35.50;4.57;;;;;;;;;;6192143;23;20024;-53
2023/09/18 00:36:46;;;;;;;9.10;3.00;;;;;;;;;;6175435;23;20013;-53
2023/09/18 00:39:15;;;;;;;11.37;2.77;;;;;;;;;;6189873;23;20017;-53
2023/09/18 00:41:43;;;;;;;7.85;2.33;;;;;;;;;;6179543;23;20514;-53
2023/09/18 00:44:11;;;;;;;15.63;3.25;;;;;;;;;;6190636;23;20021;-51
2023/09/18 00:46:40;;;;;;;11.93;3.05;;;;;;;;;;6186813;23;20032;-49
2023/09/18 00:49:09;;;;;;;11.77;3.80;;;;;;;;;;6184082;23;20082;-47
2023/09/18 00:51:37;;;;;;;21.27;4.43;;;;;;;;;;6174221;23;20024;-52
2023/09/18 00:54:05;;;;;;;17.08;3.58;;;;;;;;;;6183456;23;20023;-52
2023/09/18 00:56:34;;;;;;;25.35;3.60;;;;;;;;;;6155484;23;20048;-47
2023/09/18 00:59:03;;;;;;;11.68;3.13;;;;;;;;;;6187157;23;20012;-49
2023/09/18 01:01:32;;;;;;;6.90;2.60;;;;;;;;;;6190133;23;20020;-48
2023/09/18 01:04:02;;;;;;;8.43;2.77;;;;;;;;;;6184030;23;20021;-51
2023/09/18 01:06:31;;;;;;;8.85;2.53;;;;;;;;;;6189474;23;20058;-48
2023/09/18 01:08:59;;;;;;;8.35;2.92;;;;;;;;;;6176601;23;20020;-46
2023/09/18 01:11:31;;;;;;;8.75;2.58;;;;;;;;;;6188873;23;20016;-51
2023/09/18 01:14:04;;;;;;;8.73;2.85;;;;;;;;;;6185283;23;20012;-49
2023/09/18 01:16:35;;;;;;;7.13;3.07;;;;;;;;;;6183173;23;20051;-51
2023/09/18 01:19:05;;;;;;;6.72;2.50;;;;;;;;;;6188813;23;20036;-48
2023/09/18 01:21:32;;;;;;;8.10;2.75;;;;;;;;;;6181332;23;20334;-47
2023/09/18 01:24:02;;;;;;;8.68;2.92;;;;;;;;;;6187955;23;20042;-47
2023/09/18 01:26:30;;;;;;;7.70;2.50;;;;;;;;;;6154391;23;20016;-48
2023/09/18 01:28:58;;;;;;;9.03;2.40;;;;;;;;;;6152420;23;20059;-47
2023/09/18 01:31:26;;;;;;;7.10;2.38;;;;;;;;;;6184508;23;20020;-46
2023/09/18 01:33:54;;;;;;;8.63;2.95;;;;;;;;;;6177966;23;20043;-51
2023/09/18 01:36:22;;;;;;;8.30;2.80;;;;;;;;;;6166109;23;20456;-47
2023/09/18 01:38:51;;;;;;;9.55;3.00;;;;;;;;;;6182680;23;20020;-49
2023/09/18 01:41:20;;;;;;;17.50;3.20;;;;;;;;;;6176713;23;20020;-49
2023/09/18 01:43:48;;;;;;;9.45;2.80;;;;;;;;;;6192451;23;20017;-47
2023/09/18 01:46:16;;;;;;;9.27;2.83;;;;;;;;;;6170421;23;20357;-47
2023/09/18 01:48:46;;;;;;;14.63;3.45;;;;;;;;;;6183533;23;20020;-47
2023/09/18 01:51:14;;;;;;;11.55;3.03;;;;;;;;;;6175947;23;20108;-47
2023/09/18 01:53:42;;;;;;;30.23;3.83;;;;;;;;;;6185854;23;20016;-47
2023/09/18 01:56:10;;;;;;;16.23;3.95;;;;;;;;;;6166124;23;20016;-48
2023/09/18 01:58:39;;;;;;;10.75;3.17;;;;;;;;;;6174933;23;20387;-46
2023/09/18 02:01:08;;;;;;;12.27;3.13;;;;;;;;;;6181569;23;20440;-49
2023/09/18 02:03:41;;;;;;;13.25;3.05;;;;;;;;;;6176708;23;20775;-47
2023/09/18 02:06:29;;;;;;;10.13;2.90;;;;;;;;;;6175330;23;20052;-47
2023/09/18 02:08:57;;;;;;;10.55;3.58;;;;;;;;;;6181627;23;20059;-48
2023/09/18 02:11:25;;;;;;;10.63;3.70;;;;;;;;;;6180607;23;20023;-46
2023/09/18 02:13:56;;;;;;;12.70;3.47;;;;;;;;;;6193589;23;20025;-46
2023/09/18 02:16:24;;;;;;;11.82;4.03;;;;;;;;;;6184945;23;20027;-46
2023/09/18 02:18:51;;;;;;;10.20;3.50;;;;;;;;;;6144416;23;20293;-47
2023/09/18 02:21:21;;;;;;;11.23;3.47;;;;;;;;;;6171128;23;20631;-48
2023/09/18 02:23:49;;;;;;;10.40;3.17;;;;;;;;;;6191461;23;20025;-48
2023/09/18 02:26:17;;;;;;;10.07;3.00;;;;;;;;;;6195873;23;20383;-47
2023/09/18 02:28:45;;;;;;;10.60;3.28;;;;;;;;;;6177210;23;20071;-49
2023/09/18 02:31:15;;;;;;;7.57;2.27;;;;;;;;;;6194725;23;20013;-47
2023/09/18 02:33:44;;;;;;;10.23;3.47;;;;;;;;;;6181910;23;20016;-46
2023/09/18 02:36:12;;;;;;;9.90;3.03;;;;;;;;;;6188230;23;20074;-47
2023/09/18 02:38:40;;;;;;;8.50;2.78;;;;;;;;;;6192787;23;20020;-46
2023/09/18 02:41:07;;;;;;;9.75;3.10;;;;;;;;;;6188464;23;20032;-46
2023/09/18 02:43:37;;;;;;;10.07;2.90;;;;;;;;;;6167431;23;20810;-47
2023/09/18 02:46:06;;;;;;;9.93;3.08;;;;;;;;;;6197106;23;20074;-46
2023/09/18 02:48:35;;;;;;;9.63;3.30;;;;;;;;;;6182670;23;20040;-49
2023/09/18 02:51:04;;;;;;;9.07;2.95;;;;;;;;;;6190973;23;20016;-47
2023/09/18 02:53:31;;;;;;;11.85;3.58;;;;;;;;;;6184542;23;20362;-50
2023/09/18 02:56:00;;;;;;;9.13;3.00;;;;;;;;;;6195090;23;20016;-49
2023/09/18 02:58:30;;;;;;;10.10;3.05;;;;;;;;;;6176031;23;20293;-49
2023/09/18 03:00:59;;;;;;;9.05;2.97;;;;;;;;;;6198860;23;20024;-48
2023/09/18 03:03:27;;;;;;;8.02;2.97;;;;;;;;;;6184745;23;20521;-47
2023/09/18 03:06:00;;;;;;;8.55;3.30;;;;;;;;;;6191164;23;20027;-47
2023/09/18 03:08:29;;;;;;;9.03;3.43;;;;;;;;;;6182729;23;20087;-49
2023/09/18 03:10:57;;;;;;;11.25;3.67;;;;;;;;;;6170390;23;20020;-46
2023/09/18 03:13:27;;;;;;;10.32;4.15;;;;;;;;;;6196881;23;20479;-46
2023/09/18 03:15:55;;;;;;;12.65;4.00;;;;;;;;;;6190549;23;20016;-51
2023/09/18 03:18:24;;;;;;;16.75;5.30;;;;;;;;;;6189423;23;20012;-45
2023/09/18 03:20:51;;;;;;;37.80;12.33;;;;;;;;;;6189219;23;20021;-47
2023/09/18 03:23:21;;;;;;;37.05;11.40;;;;;;;;;;6193561;23;20013;-46
2023/09/18 03:25:48;;;;;;;40.13;10.57;;;;;;;;;;6175662;23;20523;-47
2023/09/18 03:28:18;;;;;;;50.10;11.93;;;;;;;;;;6188834;23;20012;-47
2023/09/18 03:30:46;;;;;;;56.20;12.38;;;;;;;;;;6169107;23;20024;-48
2023/09/18 03:33:14;;;;;;;56.20;15.30;;;;;;;;;;6188696;23;20022;-46
2023/09/18 03:35:49;;;;;;;60.13;16.20;;;;;;;;;;6190963;23;20021;-45
2023/09/18 03:38:17;;;;;;;66.90;16.85;;;;;;;;;;6188174;23;20506;-47
2023/09/18 03:40:46;;;;;;;91.47;17.33;;;;;;;;;;6182457;23;20291;-47
2023/09/18 03:43:14;;;;;;;79.18;16.85;;;;;;;;;;6190026;23;20035;-46
2023/09/18 03:45:42;;;;;;;83.63;17.57;;;;;;;;;;6189884;23;20021;-48
2023/09/18 03:48:10;;;;;;;79.65;17.13;;;;;;;;;;6163312;23;20027;-46
2023/09/18 03:50:39;;;;;;;87.88;17.70;;;;;;;;;;6190981;23;20567;-45
2023/09/18 03:53:09;;;;;;;79.45;18.10;;;;;;;;;;6189836;23;20317;-46
2023/09/18 03:55:39;;;;;;;87.75;18.15;;;;;;;;;;6188438;23;20063;-50
2023/09/18 03:58:08;;;;;;;105.20;19.33;;;;;;;;;;6192900;23;20517;-46
2023/09/18 04:00:36;;;;;;;91.63;18.52;;;;;;;;;;6184602;23;20066;-48
2023/09/18 04:03:04;;;;;;;91.43;21.73;;;;;;;;;;6186978;23;20371;-47
2023/09/18 04:05:32;;;;;;;103.57;24.15;;;;;;;;;;6190837;23;20029;-47
2023/09/18 04:08:00;;;;;;;100.22;24.92;;;;;;;;;;6179949;23;20317;-47
2023/09/18 04:10:28;;;;;;;107.77;24.80;;;;;;;;;;6194490;23;20020;-49
2023/09/18 04:12:55;;;;;;;102.78;25.08;;;;;;;;;;6182098;23;20023;-46
2023/09/18 04:15:25;;;;;;;99.35;24.92;;;;;;;;;;6196518;23;20067;-47
2023/09/18 04:17:53;;;;;;;110.07;26.15;;;;;;;;;;6176093;23;20356;-47
2023/09/18 04:20:20;;;;;;;119.38;27.70;;;;;;;;;;6191350;23;20017;-45
2023/09/18 04:23:09;;;;;;;124.53;28.10;;;;;;;;;;6195869;23;20020;-46
2023/09/18 04:25:36;;;;;;;98.70;26.80;;;;;;;;;;6183911;23;20017;-46
2023/09/18 04:28:05;;;;;;;105.78;28.23;;;;;;;;;;6197080;23;20255;-47
2023/09/18 04:30:38;;;;;;;100.88;26.13;;;;;;;;;;6181916;23;20016;-45
2023/09/18 04:33:08;;;;;;;115.45;26.25;;;;;;;;;;6189336;23;20710;-47
2023/09/18 04:35:37;;;;;;;108.50;25.77;;;;;;;;;;6197015;23;20391;-47
2023/09/18 04:38:06;;;;;;;104.35;26.25;;;;;;;;;;6188663;23;20023;-46
2023/09/18 04:40:35;;;;;;;99.10;25.02;;;;;;;;;;6188897;23;20017;-45
2023/09/18 04:43:04;;;;;;;102.05;25.92;;;;;;;;;;6190655;23;20393;-46
2023/09/18 04:45:31;;;;;;;104.80;25.80;;;;;;;;;;6194748;23;20012;-46
2023/09/18 04:48:01;;;;;;;100.33;24.47;;;;;;;;;;6183640;23;20096;-46
2023/09/18 04:50:29;;;;;;;100.00;25.60;;;;;;;;;;6180161;23;20048;-46
2023/09/18 04:52:57;;;;;;;84.85;24.15;;;;;;;;;;6183643;23;20016;-47
2023/09/18 04:55:26;;;;;;;79.38;23.85;;;;;;;;;;6188795;23;20467;-46
2023/09/18 04:57:53;;;;;;;82.53;24.40;;;;;;;;;;6182112;23;20016;-47
2023/09/18 05:00:24;;;;;;;92.50;24.27;;;;;;;;;;6163489;23;20020;-45
2023/09/18 05:02:53;;;;;;;88.53;23.20;;;;;;;;;;6187244;23;20024;-47
2023/09/18 05:05:22;;;;;;;83.35;22.33;;;;;;;;;;6185664;23;20028;-48
2023/09/18 05:07:50;;;;;;;79.20;22.13;;;;;;;;;;6192311;23;20040;-51
2023/09/18 05:10:18;;;;;;;77.63;20.90;;;;;;;;;;6149627;23;20031;-50
2023/09/18 05:12:46;;;;;;;63.97;21.07;;;;;;;;;;6184012;23;20021;-46
2023/09/18 05:15:14;;;;;;;72.80;20.30;;;;;;;;;;6189292;23;20020;-47
2023/09/18 05:17:43;;;;;;;64.57;20.17;;;;;;;;;;6177459;23;20020;-46
2023/09/18 05:20:13;;;;;;;67.97;19.08;;;;;;;;;;6186139;23;20017;-46
2023/09/18 05:22:42;;;;;;;64.43;19.55;;;;;;;;;;6186485;23;20016;-46
2023/09/18 05:25:11;;;;;;;57.83;17.60;;;;;;;;;;6182629;23;20025;-45
2023/09/18 05:27:43;;;;;;;51.33;16.58;;;;;;;;;;6184217;23;20020;-45
2023/09/18 05:30:14;;;;;;;47.03;15.63;;;;;;;;;;6184513;23;20044;-45
2023/09/18 05:32:42;;;;;;;50.58;15.63;;;;;;;;;;6185167;23;20434;-47
2023/09/18 05:35:12;;;;;;;46.75;14.73;;;;;;;;;;6180973;23;20012;-45
2023/09/18 05:37:43;;;;;;;43.93;14.57;;;;;;;;;;6189181;23;20417;-49
2023/09/18 05:40:12;;;;;;;43.50;14.80;;;;;;;;;;6184447;23;20078;-48
2023/09/18 05:42:42;;;;;;;43.17;14.38;;;;;;;;;;6187317;23;20383;-46
2023/09/18 05:45:11;;;;;;;42.92;15.25;;;;;;;;;;6188812;23;20016;-46
2023/09/18 05:47:39;;;;;;;44.10;14.68;;;;;;;;;;6179424;23;20013;-47
2023/09/18 05:50:08;;;;;;;39.47;14.43;;;;;;;;;;6189541;23;20052;-46
2023/09/18 05:52:36;;;;;;;46.42;14.50;;;;;;;;;;6176366;23;20024;-46
2023/09/18 05:55:06;;;;;;;54.30;15.10;;;;;;;;;;6187473;23;20013;-46
2023/09/18 05:57:34;;;;;;;48.45;15.88;;;;;;;;;;6177381;23;20020;-48
2023/09/18 06:00:03;;;;;;;40.20;14.18;;;;;;;;;;6190548;23;20885;-50
2023/09/18 06:02:33;;;;;;;39.63;13.67;;;;;;;;;;6183075;23;20032;-46
2023/09/18 06:05:02;;;;;;;47.30;15.02;;;;;;;;;;6187850;23;20059;-49
2023/09/18 06:07:30;;;;;;;47.97;14.45;;;;;;;;;;6175998;23;20023;-47
2023/09/18 06:09:58;;;;;;;38.53;13.77;;;;;;;;;;6187008;23;20023;-47
2023/09/18 06:12:27;;;;;;;38.13;12.90;;;;;;;;;;6180990;23;20115;-48
2023/09/18 06:14:55;;;;;;;50.33;14.30;;;;;;;;;;6181627;23;20020;-47
2023/09/18 06:17:23;;;;;;;34.17;12.32;;;;;;;;;;6152531;23;20474;-48
2023/09/18 06:19:52;;;;;;;33.00;11.45;;;;;;;;;;6192049;23;20012;-48
2023/09/18 06:22:21;;;;;;;26.35;9.30;;;;;;;;;;6177814;23;20024;-48
2023/09/18 06:24:49;;;;;;;29.85;8.88;;;;;;;;;;6177788;23;20384;-48
2023/09/18 06:27:16;;;;;;;22.67;9.57;;;;;;;;;;6182700;23;20021;-47
2023/09/18 06:29:47;;;;;;;23.23;9.07;;;;;;;;;;6182573;23;20012;-48
2023/09/18 06:32:15;;;;;;;21.20;7.82;;;;;;;;;;6184745;23;20054;-50
2023/09/18 06:34:44;;;;;;;19.63;7.03;;;;;;;;;;6181506;23;20624;-52
2023/09/18 06:37:12;;;;;;;18.67;7.15;;;;;;;;;;6176607;23;20016;-46
2023/09/18 06:39:40;;;;;;;16.93;6.30;;;;;;;;;;6182190;23;20091;-47
2023/09/18 06:42:09;;;;;;;15.07;6.10;;;;;;;;;;6185572;23;20205;-48
2023/09/18 06:44:37;;;;;;;16.40;5.60;;;;;;;;;;6159467;23;20016;-49
2023/09/18 06:47:06;;;;;;;15.30;5.93;;;;;;;;;;6192713;23;20044;-49
2023/09/18 06:49:34;;;;;;;17.23;5.88;;;;;;;;;;6179396;23;20051;-48
2023/09/18 06:52:02;;;;;;;13.77;4.83;;;;;;;;;;6187177;23;20020;-48
2023/09/18 06:54:33;;;;;;;17.02;5.90;;;;;;;;;;6187363;23;20074;-48
2023/09/18 06:57:00;;;;;;;16.98;5.78;;;;;;;;;;6171782;23;20024;-48
2023/09/18 06:59:29;;;;;;;16.50;6.50;;;;;;;;;;6184706;23;20059;-49
2023/09/18 07:01:58;;;;;;;14.98;5.32;;;;;;;;;;6181507;23;20028;-52
2023/09/18 07:04:27;;;;;;;14.10;6.20;;;;;;;;;;6184847;23;20526;-51
2023/09/18 07:06:56;;;;;;;16.20;6.07;;;;;;;;;;6182433;23;20013;-50
2023/09/18 07:09:25;;;;;;;16.75;6.35;;;;;;;;;;6186861;23;20016;-50
2023/09/18 07:11:53;;;;;;;19.15;7.13;;;;;;;;;;6179331;23;20300;-50
2023/09/18 07:14:21;;;;;;;18.95;7.13;;;;;;;;;;6185611;23;20016;-50
2023/09/18 07:16:48;;;;;;;23.70;7.33;;;;;;;;;;6177456;23;20475;-48
2023/09/18 07:19:16;;;;;;;21.08;8.10;;;;;;;;;;6187375;23;20020;-51
2023/09/18 07:21:48;;;;;;;21.25;7.70;;;;;;;;;;6173549;23;20047;-48
2023/09/18 07:24:17;;;;;;;22.80;7.43;;;;;;;;;;6190163;23;20012;-48
2023/09/18 07:26:46;;;;;;;19.35;7.57;;;;;;;;;;6180324;23;20059;-50
2023/09/18 07:29:15;;;;;;;21.73;7.67;;;;;;;;;;6196722;23;20127;-47
2023/09/18 07:31:43;;;;;;;22.25;8.52;;;;;;;;;;6175805;23;20424;-51
2023/09/18 07:34:11;;;;;;;24.13;7.93;;;;;;;;;;6164833;23;20348;-48
2023/09/18 07:36:41;;;;;;;21.60;8.00;;;;;;;;;;6180769;23;20092;-49
2023/09/18 07:39:11;;;;;;;21.55;8.38;;;;;;;;;;6181085;23;20022;-48
2023/09/18 07:41:39;;;;;;;22.27;9.00;;;;;;;;;;6187748;23;20013;-49
2023/09/18 07:44:07;;;;;;;21.10;9.13;;;;;;;;;;6165825;23;20016;-49
2023/09/18 07:46:35;;;;;;;26.45;8.32;;;;;;;;;;6185517;23;20023;-47
2023/09/18 07:49:03;;;;;;;18.83;8.27;;;;;;;;;;6169931;23;20344;-47
2023/09/18 07:51:31;;;;;;;24.67;8.68;;;;;;;;;;6177129;23;20399;-49
2023/09/18 07:53:59;;;;;;;18.93;7.37;;;;;;;;;;6180818;23;20430;-46
2023/09/18 07:56:31;;;;;;;19.60;7.65;;;;;;;;;;6184308;23;20080;-48
2023/09/18 07:58:59;;;;;;;17.77;6.97;;;;;;;;;;6175929;23;20067;-48
2023/09/18 08:01:26;;;;;;;19.02;7.20;;;;;;;;;;6180243;23;20557;-50
2023/09/18 08:03:59;;;;;;;19.42;8.65;;;;;;;;;;6144309;23;20135;-49
2023/09/18 08:06:28;;;;;;;21.47;7.93;;;;;;;;;;6161698;23;20021;-49
2023/09/18 08:08:55;;;;;;;21.05;8.38;;;;;;;;;;6166053;23;20013;-48
2023/09/18 08:11:23;;;;;;;22.73;8.82;;;;;;;;;;6157307;23;20083;-49
2023/09/18 08:13:54;;;;;;;25.20;8.25;;;;;;;;;;6148982;23;20044;-49
2023/09/18 08:16:21;;;;;;;21.98;8.65;;;;;;;;;;6142034;23;20385;-51
2023/09/18 08:18:49;;;;;;;25.40;9.00;;;;;;;;;;6158108;23;20494;-48
2023/09/18 08:21:18;;;;;;;21.08;8.95;;;;;;;;;;6169050;23;20083;-52
2023/09/18 08:23:46;;;;;;;21.80;8.60;;;;;;;;;;6158491;23;20112;-49
2023/09/18 08:26:13;;;;;;;18.15;8.48;;;;;;;;;;6166937;23;20025;-49
2023/09/18 08:28:43;;;;;;;22.10;8.07;;;;;;;;;;6151965;23;20374;-51
2023/09/18 08:31:14;;;;;;;19.40;8.40;;;;;;;;;;6164312;23;20025;-51
2023/09/18 08:33:41;;;;;;;19.27;8.02;;;;;;;;;;6155743;23;20066;-47
2023/09/18 08:36:09;;;;;;;20.83;7.88;;;;;;;;;;6168747;23;20020;-53
2023/09/18 08:38:37;;;;;;;19.52;7.25;;;;;;;;;;6163050;23;20020;-52
2023/09/18 08:41:05;;;;;;;14.68;5.22;;;;;;;;;;6163736;23;20017;-51
2023/09/18 08:43:34;;;;;;;16.70;5.63;;;;;;;;;;6170154;23;20083;-53
2023/09/18 08:46:04;;;;;;;18.08;6.95;;;;;;;;;;6152634;23;20475;-49
2023/09/18 08:48:36;;;;;;;16.65;7.32;;;;;;;;;;6165629;23;20017;-47
2023/09/18 08:51:05;;;;;;;18.90;6.78;;;;;;;;;;6126100;23;20048;-48
2023/09/18 08:53:33;;;;;;;14.50;6.15;;;;;;;;;;6166909;23;20095;-48
2023/09/18 08:56:02;;;;;;;15.37;6.30;;;;;;;;;;6162816;23;20519;-50
2023/09/18 08:58:32;;;;;;;20.08;7.13;;;;;;;;;;6175395;23;20055;-49
2023/09/18 09:01:03;;;;;;;22.63;6.60;;;;;;;;;;6144810;23;20029;-48
2023/09/18 09:03:31;;;;;;;20.42;7.20;;;;;;;;;;6164818;23;20040;-48
2023/09/18 09:06:01;;;;;;;13.45;6.22;;;;;;;;;;6128080;23;20059;-49
2023/09/18 09:08:28;;;;;;;17.60;6.75;;;;;;;;;;6162472;23;20467;-49
2023/09/18 09:10:57;;;;;;;21.03;7.30;;;;;;;;;;6134591;23;20087;-50
2023/09/18 09:13:26;;;;;;;18.17;7.50;;;;;;;;;;6176138;23;20035;-48
2023/09/18 09:16:15;;;;;;;19.30;6.97;;;;;;;;;;6153829;23;20505;-50
2023/09/18 09:18:50;;;;;;;18.73;7.20;;;;;;;;;;6142357;23;20480;-52
2023/09/18 09:21:20;;;;;;;21.33;6.80;;;;;;;;;;6171638;23;20928;-47
2023/09/18 09:23:51;;;;;;;15.33;6.60;;;;;;;;;;6158092;23;20020;-48
2023/09/18 09:26:20;;;;;;;22.17;7.10;;;;;;;;;;6178617;23;20719;-49
2023/09/18 09:28:48;;;;;;;20.92;7.18;;;;;;;;;;6153323;23;20009;-48
2023/09/18 09:31:27;;;;;;;15.07;6.50;;;;;;;;;;6171360;23;20323;-50
2023/09/18 09:33:56;;;;;;;17.17;6.22;;;;;;;;;;6154097;23;20103;-48
2023/09/18 09:36:26;;;;;;;14.87;5.73;;;;;;;;;;6167694;23;20020;-48
2023/09/18 09:38:57;;;;;;;18.63;6.47;;;;;;;;;;6163952;23;20453;-49
2023/09/18 09:41:27;;;;;;;18.98;6.30;;;;;;;;;;6169528;23;20118;-47
2023/09/18 09:43:56;;;;;;;18.05;6.82;;;;;;;;;;6172673;23;20027;-48
2023/09/18 09:46:28;;;;;;;15.60;7.00;;;;;;;;;;6162292;23;20423;-50
2023/09/18 09:49:01;;;;;;;20.23;6.80;;;;;;;;;;6141799;23;20016;-48
2023/09/18 09:51:30;;;;;;;18.63;6.68;;;;;;;;;;6161032;23;20059;-50
2023/09/18 09:54:00;;;;;;;18.75;7.30;;;;;;;;;;6167227;23;20083;-48
2023/09/18 09:56:44;;;;;;;17.83;7.07;;;;;;;;;;6179568;23;20021;-48
2023/09/18 09:59:13;;;;;;;24.45;7.07;;;;;;;;;;6164576;23;20546;-49
2023/09/18 10:01:41;;;;;;;20.43;6.90;;;;;;;;;;6165933;23;20017;-48
2023/09/18 10:04:16;;;;;;;20.67;6.80;;;;;;;;;;6135614;23;20360;-50
2023/09/18 10:06:50;;;;;;;16.98;6.13;;;;;;;;;;6125452;23;20021;-51
2023/09/18 10:09:19;;;;;;;14.73;6.05;;;;;;;;;;6147075;23;20386;-49
2023/09/18 10:11:52;;;;;;;13.55;5.50;;;;;;;;;;6157906;23;20315;-50
2023/09/18 10:14:20;;;;;;;13.80;5.17;;;;;;;;;;6148686;23;20027;-49
2023/09/18 10:16:50;;;;;;;9.60;4.32;;;;;;;;;;6166542;23;20713;-50
2023/09/18 10:19:23;;;;;;;10.77;4.25;;;;;;;;;;6144744;23;20611;-49
2023/09/18 10:21:58;;;;;;;13.20;4.50;;;;;;;;;;6151747;23;20021;-50
2023/09/18 10:24:26;;;;;;;12.23;4.32;;;;;;;;;;6177131;23;20017;-48
2023/09/18 10:26:58;;;;;;;9.07;4.20;;;;;;;;;;6159713;23;20021;-49
2023/09/18 10:29:26;;;;;;;7.43;2.75;;;;;;;;;;6164390;23;20044;-49
2023/09/18 10:31:54;;;;;;;10.82;3.20;;;;;;;;;;6130932;23;20054;-50
2023/09/18 10:34:23;;;;;;;6.93;3.00;;;;;;;;;;6169247;23;20103;-51
2023/09/18 10:36:54;;;;;;;9.35;2.75;;;;;;;;;;6121514;23;20468;-48
2023/09/18 10:39:24;;;;;;;10.13;2.80;;;;;;;;;;6165591;23;20020;-51
2023/09/18 10:41:53;;;;;;;7.80;2.95;;;;;;;;;;6158588;23;20017;-54
2023/09/18 10:44:21;;;;;;;8.77;3.03;;;;;;;;;;6170830;23;20385;-47
2023/09/18 10:46:49;;;;;;;8.13;3.67;;;;;;;;;;6174609;23;20060;-54
2023/09/18 10:49:17;;;;;;;10.18;3.63;;;;;;;;;;6125127;23;20445;-50
2023/09/18 10:51:49;;;;;;;8.00;3.47;;;;;;;;;;6153974;23;20044;-51
2023/09/18 10:54:25;;;;;;;9.50;3.03;;;;;;;;;;6157932;23;20017;-51
2023/09/18 10:56:53;;;;;;;6.72;3.38;;;;;;;;;;6174675;23;20071;-48
2023/09/18 10:59:21;;;;;;;8.73;2.35;;;;;;;;;;6183420;23;20016;-48
2023/09/18 11:01:50;;;;;;;15.00;2.15;;;;;;;;;;6180210;23;20012;-50
2023/09/18 11:04:19;;;;;;;7.87;2.27;;;;;;;;;;6126374;23;20021;-53
2023/09/18 11:07:04;;;;;;;8.55;2.20;;;;;;;;;;6183819;23;20443;-50
2023/09/18 11:09:41;;;;;;;5.28;1.50;;;;;;;;;;6182159;23;20012;-48
2023/09/18 11:12:11;;;;;;;4.72;1.50;;;;;;;;;;6179192;23;20081;-49
2023/09/18 11:14:43;;;;;;;7.35;1.80;;;;;;;;;;6172631;23;20495;-48
2023/09/18 11:17:29;;;;;;;7.57;1.60;;;;;;;;;;6179609;23;20016;-48
2023/09/18 11:20:06;;;;;;;5.85;1.23;;;;;;;;;;6184078;23;20712;-50
2023/09/18 11:22:37;;;;;;;9.55;1.63;;;;;;;;;;6186705;23;20016;-47
2023/09/18 11:25:24;;;;;;;5.25;1.92;;;;;;;;;;6173394;23;20039;-46
2023/09/18 11:27:57;;;;;;;7.70;2.17;;;;;;;;;;6186755;23;20013;-47
2023/09/18 11:30:25;;;;;;;6.73;1.73;;;;;;;;;;6174369;23;20020;-46
2023/09/18 11:32:55;;;;;;;5.72;1.60;;;;;;;;;;6187141;23;20071;-49
2023/09/18 11:35:34;;;;;;;5.30;1.23;;;;;;;;;;6187146;23;20108;-47
2023/09/18 11:38:06;;;;;;;5.80;1.38;;;;;;;;;;6179036;23;20012;-47
2023/09/18 11:40:38;;;;;;;5.47;1.33;;;;;;;;;;6183323;23;20028;-52
2023/09/18 11:43:25;;;;;;;4.50;1.60;;;;;;;;;;6177317;23;20560;-50
2023/09/18 11:45:54;;;;;;;5.05;1.55;;;;;;;;;;6188318;23;20016;-48
2023/09/18 11:48:24;;;;;;;5.05;1.70;;;;;;;;;;6178707;23;20039;-49
2023/09/18 11:50:54;;;;;;;5.05;1.52;;;;;;;;;;6154437;23;20017;-48
2023/09/18 11:53:24;;;;;;;6.20;1.77;;;;;;;;;;6185173;23;20107;-50
2023/09/18 11:55:52;;;;;;;4.80;1.00;;;;;;;;;;6181672;23;20006;-48
2023/09/18 11:58:23;;;;;;;5.45;1.23;;;;;;;;;;6173887;23;20450;-47
2023/09/18 12:00:54;;;;;;;4.18;1.30;;;;;;;;;;6139741;23;20013;-47
2023/09/18 12:03:28;;;;;;;5.55;1.25;;;;;;;;;;6176082;23;20082;-49
2023/09/18 12:05:57;;;;;;;4.18;1.40;;;;;;;;;;6158850;23;20067;-47
2023/09/18 12:08:26;;;;;;;4.47;1.03;;;;;;;;;;6182021;23;20375;-49
2023/09/18 12:10:54;;;;;;;4.50;1.13;;;;;;;;;;6159624;23;20040;-46
2023/09/18 12:13:23;;;;;;;6.32;0.95;;;;;;;;;;6184052;23;20016;-48
2023/09/18 12:15:56;;;;;;;3.85;1.10;;;;;;;;;;6180904;23;20079;-48
2023/09/18 12:18:25;;;;;;;3.90;0.90;;;;;;;;;;6178024;23;20025;-47
2023/09/18 12:20:58;;;;;;;3.00;0.47;;;;;;;;;;6172686;23;20597;-48
2023/09/18 12:23:28;;;;;;;3.05;0.43;;;;;;;;;;6183960;23;20104;-47
2023/09/18 12:26:00;;;;;;;2.75;0.40;;;;;;;;;;6158911;23;20016;-52
2023/09/18 12:28:29;;;;;;;2.67;0.70;;;;;;;;;;6180308;23;20451;-50
2023/09/18 12:31:04;;;;;;;3.17;0.50;;;;;;;;;;6179289;23;20017;-47
2023/09/18 12:33:35;;;;;;;2.80;0.60;;;;;;;;;;6183870;23;20013;-49
2023/09/18 12:36:03;;;;;;;3.78;0.50;;;;;;;;;;6168028;23;20444;-49
2023/09/18 12:38:33;;;;;;;3.10;0.60;;;;;;;;;;6187599;23;20013;-48
2023/09/18 12:41:06;;;;;;;3.28;0.50;;;;;;;;;;6183088;23;20044;-48
2023/09/18 12:43:35;;;;;;;4.07;0.80;;;;;;;;;;6187045;23;20446;-48
2023/09/18 12:46:05;;;;;;;3.63;0.60;;;;;;;;;;6145059;23;20447;-46
2023/09/18 12:48:32;;;;;;;3.90;0.90;;;;;;;;;;6148834;23;20154;-47
2023/09/18 12:51:04;;;;;;;4.75;0.88;;;;;;;;;;6171275;23;20367;-49
2023/09/18 12:53:32;;;;;;;4.68;0.80;;;;;;;;;;6181323;23;20075;-49
2023/09/18 12:56:07;;;;;;;5.28;1.10;;;;;;;;;;6177182;23;20486;-45
2023/09/18 12:58:35;;;;;;;4.50;0.97;;;;;;;;;;6184863;23;20024;-51
2023/09/18 13:01:22;;;;;;;7.40;1.13;;;;;;;;;;6180082;23;20074;-47
2023/09/18 13:03:50;;;;;;;4.70;1.10;;;;;;;;;;6176480;23;20459;-47
2023/09/18 13:06:19;;;;;;;4.45;1.10;;;;;;;;;;6183260;23;20051;-47
2023/09/18 13:08:47;;;;;;;5.45;1.30;;;;;;;;;;6178252;23;20451;-50
2023/09/18 13:11:16;;;;;;;4.60;1.07;;;;;;;;;;6186019;23;20017;-51
2023/09/18 13:13:44;;;;;;;5.28;1.02;;;;;;;;;;6174094;23;20044;-48
2023/09/18 13:16:15;;;;;;;4.30;0.95;;;;;;;;;;6157785;23;20020;-48
2023/09/18 13:18:49;;;;;;;4.22;0.90;;;;;;;;;;6117982;23;20082;-47
2023/09/18 13:21:19;;;;;;;4.55;0.90;;;;;;;;;;6172625;23;20424;-50
2023/09/18 13:23:47;;;;;;;3.50;0.70;;;;;;;;;;6185456;23;20066;-50
2023/09/18 13:26:15;;;;;;;5.40;0.93;;;;;;;;;;6180512;23;20370;-46
2023/09/18 13:28:44;;;;;;;4.32;0.85;;;;;;;;;;6177708;23;20025;-46
2023/09/18 13:31:12;;;;;;;4.38;0.60;;;;;;;;;;6185114;23;20035;-46
2023/09/18 13:33:40;;;;;;;4.05;0.98;;;;;;;;;;6183845;23;20444;-48
2023/09/18 13:36:10;;;;;;;4.67;1.10;;;;;;;;;;6158730;23;20079;-48
2023/09/18 13:38:37;;;;;;;4.63;0.93;;;;;;;;;;6182000;23;20112;-47
2023/09/18 13:41:05;;;;;;;5.82;1.42;;;;;;;;;;6164857;23;20017;-47
2023/09/18 13:43:34;;;;;;;5.10;0.90;;;;;;;;;;6191916;23;20027;-46
2023/09/18 13:46:05;;;;;;;4.65;1.00;;;;;;;;;;6181932;23;20508;-48
2023/09/18 13:48:33;;;;;;;5.47;1.07;;;;;;;;;;6161285;23;20020;-45
2023/09/18 13:51:03;;;;;;;3.88;1.20;;;;;;;;;;6175055;23;20343;-48
2023/09/18 13:53:33;;;;;;;7.90;1.40;;;;;;;;;;6180849;23;20013;-47
2023/09/18 13:56:02;;;;;;;5.15;1.05;;;;;;;;;;6177466;23;20357;-47
2023/09/18 13:58:30;;;;;;;4.82;1.38;;;;;;;;;;6189782;23;20024;-47
2023/09/18 14:00:59;;;;;;;5.47;1.30;;;;;;;;;;6178488;23;20071;-48
2023/09/18 14:03:26;;;;;;;5.93;1.45;;;;;;;;;;6187588;23;20017;-46
2023/09/18 14:05:54;;;;;;;4.70;1.60;;;;;;;;;;6182344;23;20027;-46
2023/09/18 14:08:22;;;;;;;4.32;1.13;;;;;;;;;;6187312;23;20017;-51
2023/09/18 14:10:51;;;;;;;6.88;1.48;;;;;;;;;;6171747;23;20017;-48
2023/09/18 14:13:19;;;;;;;5.90;2.00;;;;;;;;;;6188597;23;20023;-46
2023/09/18 14:15:47;;;;;;;6.40;1.33;;;;;;;;;;6175504;23;20044;-50
2023/09/18 14:18:19;;;;;;;4.07;1.25;;;;;;;;;;6161852;23;20016;-50
2023/09/18 14:20:47;;;;;;;4.47;1.02;;;;;;;;;;6163927;23;20519;-48
2023/09/18 14:23:14;;;;;;;3.80;1.10;;;;;;;;;;6136591;23;20012;-49
2023/09/18 14:25:42;;;;;;;4.23;0.83;;;;;;;;;;6171515;23;20066;-51
2023/09/18 14:28:13;;;;;;;3.47;0.80;;;;;;;;;;6132961;23;20788;-50
2023/09/18 14:30:41;;;;;;;3.75;0.60;;;;;;;;;;6152727;23;20020;-47
2023/09/18 14:33:09;;;;;;;3.28;0.80;;;;;;;;;;6162694;23;20025;-48
2023/09/18 14:35:37;;;;;;;2.90;0.50;;;;;;;;;;6146479;23;20500;-51
2023/09/18 14:38:06;;;;;;;4.43;0.70;;;;;;;;;;6175219;23;20016;-49
2023/09/18 14:40:34;;;;;;;4.40;0.70;;;;;;;;;;6143336;23;20023;-48
2023/09/18 14:43:05;;;;;;;3.30;0.80;;;;;;;;;;6147343;23;20258;-48
2023/09/18 14:45:34;;;;;;;4.78;0.70;;;;;;;;;;6175044;23;20100;-51